Airfield :
LOGIN :

Register | Disclaimer

   EN    FR    IT 

 










Legend :    VFR   Marginal VFR   IFR   Intensive IFR   Very Intensive IFR
Visi :
Ceiling :
>= 8 km
>= 3000ft
5 to 8 km
1000 to 3000 ft
1500m to 5 km
500 to 1000 ft
800 to 1500m
200 to 500 ft
< 800m
< 200 ft
Symbols :   Thunderstorms  Fog  Heavy snow  Heavy precipitations  Wind > 20 kt
SIGMETs :     Misc.  Thunderstorms  Icing  Turbulence  Mountain Waves  Volcanic Ashes






- Airport Elevation : 82 ft
- IATA code : QIE


LFMI - Istres

CURRENT METAR :
  • 280700Z AUTO 05005KT CAVOK 06/04 Q1016 NOSIG

EXPIRED METARs :
  • 280630Z AUTO 01004KT 320V060 9999 FEW042 BKN240 05/04 Q1016 NOSIG
  • 280600Z AUTO 32005KT 290V360 9999 FEW045 05/04 Q1016 NOSIG
  • 280530Z AUTO 27004KT 240V300 CAVOK 05/03 Q1016 NOSIG
  • 280500Z AUTO 28004KT CAVOK 05/03 Q1016 NOSIG
  • 280430Z AUTO 31005KT CAVOK 05/04 Q1016 NOSIG

TAF TAF LFMI
Valid from the 28 at 03:00 until the 29 at 03:00 UTC


280200Z 2803/2903 31010KT CAVOK TX18/2814Z TN06/2805Z
TEMPO 2803/2810 VRB04KT
TEMPO 2811/2817 28015G25KT
BECMG 2823/2901 VRB04KT
PROB40
TEMPO 2901/2903 2000 BR



MET'MAP, your aeronautical weather chart ! - Copyright ORBIFLY December 2007 - Disclaimer

ORBIFLY MET'MAP TEAM :

Programming & Development : Alexandra Zaïnal
Concept & original design : Baudouin d'Aumeries
Assistance for programming : Marc-Olivier Méhu
Technical & hardware support : Manuel Goepfert

Contact : metmap@orbifly.com




SOURCES & CREDITS :

   NOAA